Time;durP1;ratioP1;P1;durP2;ratioP2;P2;SDS_P1;SDS_P2;PMS_P1;PMS_P2;Temp;Humidity;BMP_temperature;BMP_pressure;BME280_temperature;BME280_humidity;BME280_pressure;Samples;Min_cycle;Max_cycle;Signal;HPM_P1;HPM_P2
2021/11/05 00:00:42;;;;;;;15.82;10.50;;;;;;;4.85;100.00;101440.03;5242381;28;20033;-68
2021/11/05 00:03:15;;;;;;;13.75;10.40;;;;;;;4.82;100.00;101453.16;5241485;28;20064;-69
2021/11/05 00:05:46;;;;;;;14.00;10.85;;;;;;;4.79;100.00;101449.88;5241258;28;20576;-68
2021/11/05 00:08:17;;;;;;;13.32;9.85;;;;;;;4.82;100.00;101449.72;5240979;28;20308;-69
2021/11/05 00:10:49;;;;;;;14.07;9.82;;;;;;;4.76;100.00;101447.44;5241384;28;20049;-69
2021/11/05 00:13:20;;;;;;;15.27;9.88;;;;;;;4.80;100.00;101456.75;5241452;28;20048;-69
2021/11/05 00:15:52;;;;;;;14.90;9.50;;;;;;;4.74;100.00;101446.69;5242327;28;20035;-69
2021/11/05 00:18:23;;;;;;;15.43;10.30;;;;;;;4.77;100.00;101459.47;5240675;28;20037;-68
2021/11/05 00:20:54;;;;;;;16.10;10.45;;;;;;;4.81;100.00;101455.81;5242050;28;20025;-70
2021/11/05 00:23:25;;;;;;;16.45;9.75;;;;;;;4.76;100.00;101463.84;5238342;28;20061;-68
2021/11/05 00:25:57;;;;;;;18.13;10.23;;;;;;;4.79;100.00;101460.25;5241316;28;20025;-70
2021/11/05 00:28:28;;;;;;;14.48;9.82;;;;;;;4.79;100.00;101468.03;5241789;28;20065;-69
2021/11/05 00:30:59;;;;;;;16.98;9.90;;;;;;;4.85;100.00;101467.75;5239748;28;20055;-69
2021/11/05 00:33:31;;;;;;;12.95;9.75;;;;;;;4.82;100.00;101467.91;5240435;28;20033;-69
2021/11/05 00:36:02;;;;;;;16.73;9.10;;;;;;;4.86;100.00;101472.84;5240243;28;20025;-69
2021/11/05 00:38:34;;;;;;;14.50;9.20;;;;;;;4.83;100.00;101477.34;5240918;28;20038;-69
2021/11/05 00:41:05;;;;;;;14.43;10.00;;;;;;;4.88;100.00;101485.75;5239329;28;20034;-68
2021/11/05 00:43:37;;;;;;;13.45;8.38;;;;;;;4.76;100.00;101476.81;5241662;28;20112;-69
2021/11/05 00:46:08;;;;;;;12.82;8.50;;;;;;;4.79;100.00;101486.22;5240253;28;20032;-69
2021/11/05 00:48:39;;;;;;;10.40;8.38;;;;;;;4.77;100.00;101493.22;5240003;28;20080;-68
2021/11/05 00:51:11;;;;;;;14.73;9.23;;;;;;;4.77;100.00;101488.91;5238036;28;20061;-69
2021/11/05 00:53:42;;;;;;;12.38;8.32;;;;;;;4.80;100.00;101487.88;5240077;28;20047;-69
2021/11/05 00:56:15;;;;;;;11.27;7.80;;;;;;;4.82;100.00;101492.09;5241703;28;20026;-69
2021/11/05 00:58:46;;;;;;;15.77;7.57;;;;;;;4.81;100.00;101492.16;5243057;28;20102;-69
2021/11/05 01:01:18;;;;;;;11.82;7.10;;;;;;;4.79;100.00;101500.03;5239427;28;20056;-68
2021/11/05 01:03:49;;;;;;;9.73;7.47;;;;;;;4.84;100.00;101494.59;5241263;28;20035;-68
2021/11/05 01:06:21;;;;;;;9.57;7.30;;;;;;;4.83;100.00;101500.72;5238914;28;20022;-69
2021/11/05 01:08:52;;;;;;;16.48;7.53;;;;;;;4.84;100.00;101497.19;5241272;28;20056;-69
2021/11/05 01:11:23;;;;;;;13.05;7.60;;;;;;;4.81;100.00;101495.63;5239521;28;20442;-68
2021/11/05 01:13:54;;;;;;;12.40;6.53;;;;;;;4.79;100.00;101497.44;5242597;28;20052;-69
2021/11/05 01:16:26;;;;;;;10.60;6.82;;;;;;;4.91;100.00;101506.38;5241476;28;20025;-68
2021/11/05 01:18:57;;;;;;;10.85;6.68;;;;;;;4.94;100.00;101511.41;5242960;28;20040;-69
2021/11/05 01:21:28;;;;;;;10.35;6.35;;;;;;;4.95;100.00;101517.44;5239671;28;20025;-69
2021/11/05 01:24:00;;;;;;;9.88;7.13;;;;;;;4.86;100.00;101514.38;5239541;28;20028;-68
2021/11/05 01:26:32;;;;;;;8.95;6.50;;;;;;;4.93;100.00;101520.13;5241830;28;20053;-69
2021/11/05 01:29:03;;;;;;;10.18;6.70;;;;;;;4.91;100.00;101521.09;5241467;28;20053;-69
2021/11/05 01:31:34;;;;;;;10.07;5.88;;;;;;;4.88;100.00;101532.47;5240120;28;20361;-68
2021/11/05 01:34:06;;;;;;;8.13;6.10;;;;;;;4.92;100.00;101539.19;5238721;28;20060;-69
2021/11/05 01:36:37;;;;;;;9.43;6.18;;;;;;;4.80;100.00;101535.47;5240296;28;20052;-68
2021/11/05 01:39:08;;;;;;;7.47;6.15;;;;;;;4.80;100.00;101543.25;5242710;28;20022;-68
2021/11/05 01:41:40;;;;;;;6.45;4.68;;;;;;;4.75;100.00;101537.44;5240589;28;20033;-69
2021/11/05 01:44:11;;;;;;;8.50;5.93;;;;;;;4.73;100.00;101544.47;5241004;28;20466;-68
2021/11/05 01:46:43;;;;;;;8.20;4.95;;;;;;;4.73;100.00;101547.06;5241917;28;20025;-68
2021/11/05 01:49:14;;;;;;;11.02;5.25;;;;;;;4.78;100.00;101552.88;5240313;28;20413;-68
2021/11/05 01:51:46;;;;;;;9.82;5.40;;;;;;;4.72;100.00;101544.53;5239943;28;20037;-68
2021/11/05 01:54:18;;;;;;;8.43;4.75;;;;;;;4.75;100.00;101550.44;5239042;28;20029;-68
2021/11/05 01:56:50;;;;;;;7.75;5.55;;;;;;;4.86;100.00;101545.53;5235661;28;20052;-69
2021/11/05 01:59:27;;;;;;;6.22;5.00;;;;;;;4.83;100.00;101548.28;5239828;28;20720;-69
2021/11/05 02:02:01;;;;;;;7.95;4.50;;;;;;;4.84;100.00;101556.91;5240808;28;20036;-68
2021/11/05 02:04:33;;;;;;;7.95;5.05;;;;;;;4.77;100.00;101548.59;5240900;28;20033;-68
2021/11/05 02:07:04;;;;;;;7.93;5.45;;;;;;;4.84;100.00;101559.50;5239080;28;20491;-68
2021/11/05 02:09:38;;;;;;;9.15;5.15;;;;;;;4.76;100.00;101564.25;5239960;28;20029;-68
2021/11/05 02:12:10;;;;;;;7.35;4.57;;;;;;;4.76;100.00;101559.06;5241133;28;20036;-68
2021/11/05 02:14:44;;;;;;;7.05;5.20;;;;;;;4.68;100.00;101563.78;5240718;28;20483;-69
2021/11/05 02:17:15;;;;;;;8.02;4.57;;;;;;;4.72;100.00;101568.75;5238539;28;20017;-70
2021/11/05 02:19:47;;;;;;;6.53;4.50;;;;;;;4.72;100.00;101573.09;5239947;28;20114;-68
2021/11/05 02:22:19;;;;;;;6.25;4.60;;;;;;;4.70;100.00;101582.69;5239488;28;20100;-69
2021/11/05 02:24:51;;;;;;;7.05;4.40;;;;;;;4.74;100.00;101576.47;5239217;28;20040;-68
2021/11/05 02:27:22;;;;;;;7.45;4.13;;;;;;;4.71;100.00;101584.41;5239042;28;20034;-68
2021/11/05 02:29:53;;;;;;;7.15;4.35;;;;;;;4.71;100.00;101579.22;5238131;28;20051;-68
2021/11/05 02:32:25;;;;;;;7.78;4.55;;;;;;;4.75;100.00;101585.94;5238325;28;20048;-68
2021/11/05 02:34:57;;;;;;;8.05;4.68;;;;;;;4.78;100.00;101591.81;5239641;28;20017;-68
2021/11/05 02:37:28;;;;;;;6.53;4.50;;;;;;;4.78;100.00;101603.97;5239159;28;20029;-68
2021/11/05 02:40:00;;;;;;;6.05;4.15;;;;;;;4.77;100.00;101599.66;5237944;28;20037;-68
2021/11/05 02:42:31;;;;;;;6.95;4.78;;;;;;;4.84;100.00;101601.88;5238360;28;20036;-68
2021/11/05 02:45:04;;;;;;;10.60;4.68;;;;;;;4.86;100.00;101600.06;5238183;28;20500;-68
2021/11/05 02:47:36;;;;;;;8.27;4.35;;;;;;;4.82;100.00;101601.13;5244615;28;20056;-69
2021/11/05 02:50:13;;;;;;;7.07;4.05;;;;;;;4.88;100.00;101603.41;5241885;28;20025;-69
2021/11/05 02:52:45;;;;;;;6.85;4.55;;;;;;;4.81;100.00;101608.97;5245384;28;20057;-68
2021/11/05 02:55:16;;;;;;;8.30;4.28;;;;;;;4.73;100.00;101606.75;5240703;28;20391;-68
2021/11/05 02:57:47;;;;;;;11.00;4.75;;;;;;;4.76;100.00;101619.59;5246429;28;20033;-69
2021/11/05 03:00:19;;;;;;;9.20;4.13;;;;;;;4.73;100.00;101621.50;5243638;28;20064;-68
2021/11/05 03:02:50;;;;;;;6.90;3.75;;;;;;;4.69;100.00;101628.59;5240289;28;20094;-68
2021/11/05 03:05:21;;;;;;;6.47;4.22;;;;;;;4.68;100.00;101632.09;5241996;28;20036;-67
2021/11/05 03:07:52;;;;;;;8.35;4.03;;;;;;;4.61;100.00;101635.91;5242712;28;20049;-68
2021/11/05 03:10:24;;;;;;;7.47;4.10;;;;;;;4.60;100.00;101636.81;5243420;28;20108;-68
2021/11/05 03:12:55;;;;;;;6.10;3.53;;;;;;;4.58;100.00;101639.50;5239756;28;20029;-68
2021/11/05 03:15:26;;;;;;;6.47;4.40;;;;;;;4.56;100.00;101643.06;5242746;28;20021;-68
2021/11/05 03:18:00;;;;;;;8.40;3.90;;;;;;;4.54;100.00;101647.47;5241110;28;20021;-70
2021/11/05 03:20:31;;;;;;;5.47;4.10;;;;;;;4.53;100.00;101658.78;5243597;28;20036;-68
2021/11/05 03:23:03;;;;;;;7.07;3.63;;;;;;;4.49;100.00;101655.47;5241631;28;20402;-68
2021/11/05 03:25:34;;;;;;;7.50;3.53;;;;;;;4.45;100.00;101655.69;5243536;28;20033;-68
2021/11/05 03:28:06;;;;;;;5.82;3.63;;;;;;;4.40;100.00;101658.50;5242414;28;20047;-68
2021/11/05 03:30:37;;;;;;;8.15;3.35;;;;;;;4.45;100.00;101663.47;5242650;28;20028;-68
2021/11/05 03:33:09;;;;;;;5.75;3.20;;;;;;;4.42;100.00;101672.22;5242167;28;20364;-68
2021/11/05 03:35:40;;;;;;;6.45;3.58;;;;;;;4.43;100.00;101660.09;5243171;28;20029;-70
2021/11/05 03:38:11;;;;;;;5.82;3.08;;;;;;;4.35;100.00;101658.69;5242613;28;20032;-69
2021/11/05 03:40:43;;;;;;;5.68;3.47;;;;;;;4.31;100.00;101662.34;5240585;28;20032;-68
2021/11/05 03:43:14;;;;;;;4.65;2.92;;;;;;;4.29;100.00;101677.16;5243067;28;20035;-69
2021/11/05 03:45:45;;;;;;;5.78;2.90;;;;;;;4.26;100.00;101684.22;5245356;28;20068;-69
2021/11/05 03:48:17;;;;;;;4.82;3.20;;;;;;;4.23;100.00;101682.59;5243104;28;20025;-68
2021/11/05 03:50:48;;;;;;;4.93;3.58;;;;;;;4.20;100.00;101682.72;5238456;28;20060;-68
2021/11/05 03:53:20;;;;;;;5.45;2.72;;;;;;;4.15;100.00;101685.53;5242205;28;20024;-70
2021/11/05 03:55:51;;;;;;;9.07;3.30;;;;;;;4.15;100.00;101677.75;5241875;28;20040;-70
2021/11/05 03:58:22;;;;;;;6.22;3.22;;;;;;;4.21;100.00;101697.41;5241078;28;20033;-68
2021/11/05 04:00:54;;;;;;;4.57;2.80;;;;;;;4.17;100.00;101698.47;5241797;28;20082;-69
2021/11/05 04:03:25;;;;;;;4.75;2.63;;;;;;;4.20;100.00;101705.25;5243172;28;20394;-68
2021/11/05 04:05:57;;;;;;;7.25;2.78;;;;;;;4.07;100.00;101710.97;5240166;28;20044;-69
2021/11/05 04:08:28;;;;;;;6.13;2.65;;;;;;;4.04;100.00;101712.84;5241254;28;20033;-68
2021/11/05 04:11:00;;;;;;;7.97;3.08;;;;;;;4.07;100.00;101717.91;5240845;28;20024;-68
2021/11/05 04:13:31;;;;;;;5.82;3.40;;;;;;;4.08;100.00;101730.78;5240101;28;20087;-69
2021/11/05 04:16:03;;;;;;;5.82;3.20;;;;;;;4.09;100.00;101729.91;5241529;28;20036;-68
2021/11/05 04:18:35;;;;;;;4.78;2.95;;;;;;;4.06;100.00;101732.63;5242766;28;20037;-69
2021/11/05 04:21:06;;;;;;;6.80;2.90;;;;;;;4.00;100.00;101740.66;5242196;28;20056;-68
2021/11/05 04:23:38;;;;;;;4.22;3.17;;;;;;;4.02;100.00;101741.47;5241664;28;20108;-68
2021/11/05 04:26:09;;;;;;;6.25;3.17;;;;;;;4.01;100.00;101744.09;5240981;28;20637;-68
2021/11/05 04:28:41;;;;;;;5.60;3.33;;;;;;;3.99;100.00;101754.53;5241406;28;20060;-68
2021/11/05 04:31:13;;;;;;;4.55;3.05;;;;;;;4.00;100.00;101755.38;5242375;28;20022;-68
2021/11/05 04:33:44;;;;;;;5.53;3.20;;;;;;;3.93;100.00;101759.97;5242070;28;20223;-68
2021/11/05 04:36:17;;;;;;;7.95;3.00;;;;;;;3.89;100.00;101771.38;5241338;28;20032;-68
2021/11/05 04:38:49;;;;;;;;;;;;;;;4.39;100.00;101774.41;5239636;28;20108;-68
2021/11/05 04:41:22;;;;;;;8.98;3.47;;;;;;;3.96;100.00;101767.63;5240329;28;19924;-68
2021/11/05 04:43:54;;;;;;;5.47;3.85;;;;;;;3.94;100.00;101777.25;5242455;28;20482;-68
2021/11/05 04:46:25;;;;;;;6.75;4.25;;;;;;;3.96;100.00;101774.56;5240016;28;20043;-69
2021/11/05 04:48:56;;;;;;;5.30;3.35;;;;;;;3.88;100.00;101777.50;5241897;28;20021;-69
2021/11/05 04:51:28;;;;;;;7.32;4.13;;;;;;;3.92;100.00;101785.97;5243248;28;20037;-69
2021/11/05 04:54:00;;;;;;;6.00;4.47;;;;;;;3.90;100.00;101779.13;5240961;28;20029;-68
2021/11/05 04:56:31;;;;;;;9.65;4.78;;;;;;;3.92;100.00;101784.22;5240936;28;20028;-69
2021/11/05 04:59:03;;;;;;;6.43;4.45;;;;;;;3.94;100.00;101797.97;5240892;28;20029;-69
2021/11/05 05:01:34;;;;;;;8.13;4.50;;;;;;;3.89;100.00;101800.75;5239155;28;20121;-68
2021/11/05 05:04:06;;;;;;;5.20;4.07;;;;;;;3.85;100.00;101803.53;5240431;28;21263;-69
2021/11/05 05:06:37;;;;;;;9.60;4.78;;;;;;;3.84;100.00;101802.69;5240509;28;20024;-69
2021/11/05 05:09:08;;;;;;;8.88;4.60;;;;;;;3.91;100.00;101811.06;5239972;28;20431;-68
2021/11/05 05:11:45;;;;;;;9.30;4.63;;;;;;;3.86;100.00;101810.38;5240836;28;20029;-69
2021/11/05 05:14:17;;;;;;;6.43;4.47;;;;;;;3.84;100.00;101815.66;5242835;28;20020;-69
2021/11/05 05:16:48;;;;;;;9.25;5.05;;;;;;;3.81;100.00;101822.72;5239919;28;20029;-68
2021/11/05 05:19:21;;;;;;;8.48;4.72;;;;;;;3.81;100.00;101827.88;5241137;28;20017;-69
2021/11/05 05:21:52;;;;;;;12.38;5.72;;;;;;;3.76;100.00;101822.91;5239780;28;20040;-69
2021/11/05 05:24:23;;;;;;;7.75;4.32;;;;;;;3.77;100.00;101828.94;5241297;28;20033;-68
2021/11/05 05:26:56;;;;;;;9.43;4.50;;;;;;;3.78;100.00;101835.78;5238931;28;20454;-69
2021/11/05 05:29:27;;;;;;;6.30;4.60;;;;;;;3.75;100.00;101839.38;5238925;28;20033;-68
2021/11/05 05:31:58;;;;;;;7.80;4.78;;;;;;;3.71;100.00;101832.59;5237447;28;20022;-69
2021/11/05 05:34:29;;;;;;;8.02;4.38;;;;;;;3.73;100.00;101835.97;5241627;28;20237;-69
2021/11/05 05:37:01;;;;;;;11.35;5.13;;;;;;;3.74;100.00;101845.44;5239166;28;20013;-68
2021/11/05 05:39:33;;;;;;;8.35;4.60;;;;;;;3.73;100.00;101850.69;5239145;28;20037;-69
2021/11/05 05:42:04;;;;;;;6.30;4.32;;;;;;;3.80;100.00;101849.53;5240349;28;20029;-68
2021/11/05 05:44:36;;;;;;;7.72;5.45;;;;;;;3.82;100.00;101853.75;5239485;28;20034;-69
2021/11/05 05:47:07;;;;;;;15.77;4.80;;;;;;;3.88;100.00;101857.84;5238115;28;20068;-70
2021/11/05 05:49:39;;;;;;;5.28;4.78;;;;;;;3.87;100.00;101854.41;5241108;28;20063;-68
2021/11/05 05:52:10;;;;;;;5.65;4.35;;;;;;;3.87;100.00;101866.53;5241157;28;20045;-68
2021/11/05 05:54:41;;;;;;;8.88;4.90;;;;;;;3.81;100.00;101857.25;5239008;28;20025;-69
2021/11/05 05:57:12;;;;;;;7.68;4.90;;;;;;;3.91;100.00;101873.28;5240938;28;20075;-68
2021/11/05 05:59:44;;;;;;;6.55;4.70;;;;;;;3.89;100.00;101877.66;5239581;28;20056;-68
2021/11/05 06:02:15;;;;;;;9.90;5.53;;;;;;;3.92;100.00;101874.13;5240002;28;20021;-68
2021/11/05 06:04:46;;;;;;;5.90;5.05;;;;;;;3.94;100.00;101872.28;5238536;28;20025;-68
2021/11/05 06:07:18;;;;;;;7.90;5.22;;;;;;;3.92;100.00;101872.38;5237533;28;20482;-69
2021/11/05 06:09:49;;;;;;;7.45;5.07;;;;;;;3.95;100.00;101880.03;5240435;28;20041;-69
2021/11/05 06:12:21;;;;;;;8.15;5.20;;;;;;;3.93;100.00;101883.56;5237750;28;20029;-69
2021/11/05 06:14:52;;;;;;;7.68;5.22;;;;;;;3.93;100.00;101888.75;5239467;28;20075;-69
2021/11/05 06:17:23;;;;;;;8.32;4.70;;;;;;;3.94;100.00;101890.44;5240681;28;20645;-69
2021/11/05 06:19:55;;;;;;;9.57;5.03;;;;;;;3.88;100.00;101897.56;5240986;28;20083;-69
2021/11/05 06:22:26;;;;;;;8.68;4.90;;;;;;;3.89;100.00;101898.41;5240199;28;20021;-68
2021/11/05 06:24:59;;;;;;;19.73;5.60;;;;;;;3.90;100.00;101902.69;5239515;28;20021;-69
2021/11/05 06:27:31;;;;;;;9.10;4.95;;;;;;;3.93;100.00;101906.91;5239388;28;20095;-68
2021/11/05 06:30:07;;;;;;;7.75;5.03;;;;;;;3.89;100.00;101911.38;5237248;28;20430;-69
2021/11/05 06:32:39;;;;;;;8.38;5.40;;;;;;;3.94;100.00;101906.00;5241155;28;20036;-68
2021/11/05 06:35:12;;;;;;;6.95;5.43;;;;;;;3.94;100.00;101921.56;5238798;28;20083;-68
2021/11/05 06:37:43;;;;;;;6.63;4.43;;;;;;;3.92;100.00;101913.84;5239110;28;20424;-69
2021/11/05 06:40:15;;;;;;;5.50;4.70;;;;;;;3.94;100.00;101918.97;5237724;28;20029;-69
2021/11/05 06:42:46;;;;;;;8.68;5.10;;;;;;;3.94;100.00;101925.03;5240945;28;20040;-68
2021/11/05 06:45:18;;;;;;;9.32;5.30;;;;;;;3.97;100.00;101927.47;5238566;28;20033;-69
2021/11/05 06:47:49;;;;;;;7.70;5.00;;;;;;;4.03;100.00;101931.56;5238733;28;20068;-70
2021/11/05 06:50:21;;;;;;;9.52;5.45;;;;;;;4.03;100.00;101936.75;5241474;28;20017;-69
2021/11/05 06:52:52;;;;;;;7.55;5.60;;;;;;;4.11;100.00;101939.88;5240702;28;20041;-69
2021/11/05 06:55:24;;;;;;;10.55;6.07;;;;;;;4.10;100.00;101943.41;5242533;28;20052;-69
2021/11/05 06:57:55;;;;;;;9.23;5.75;;;;;;;4.11;100.00;101945.91;5244403;28;20556;-70
2021/11/05 07:00:26;;;;;;;6.50;5.40;;;;;;;4.17;100.00;101960.41;5241132;28;20041;-69
2021/11/05 07:03:02;;;;;;;10.32;5.68;;;;;;;4.13;100.00;101949.31;5243491;28;20101;-68
2021/11/05 07:05:34;;;;;;;6.63;5.40;;;;;;;4.15;100.00;101960.44;5243216;28;20483;-68
2021/11/05 07:08:06;;;;;;;7.47;5.57;;;;;;;4.21;100.00;101967.16;5243313;28;20037;-68
2021/11/05 07:10:37;;;;;;;8.55;5.75;;;;;;;4.25;100.00;101975.66;5242996;28;20021;-69
2021/11/05 07:13:09;;;;;;;8.73;6.68;;;;;;;4.27;100.00;101981.59;5244181;28;20026;-70
2021/11/05 07:15:40;;;;;;;9.73;6.50;;;;;;;4.32;100.00;101983.13;5243494;28;20040;-69
2021/11/05 07:18:12;;;;;;;7.95;5.80;;;;;;;4.31;100.00;101976.22;5243792;28;20079;-69
2021/11/05 07:20:44;;;;;;;6.88;5.80;;;;;;;4.40;100.00;101993.19;5217837;28;20037;-68
2021/11/05 07:23:15;;;;;;;7.97;6.30;;;;;;;4.49;100.00;101998.00;5237202;28;20061;-68
2021/11/05 07:25:47;;;;;;;12.82;6.53;;;;;;;4.52;100.00;102003.06;5229645;28;21062;-69
2021/11/05 07:28:18;;;;;;;8.10;6.68;;;;;;;4.61;100.00;102004.44;5217789;28;20068;-68
2021/11/05 07:30:50;;;;;;;10.85;6.20;;;;;;;4.59;100.00;102009.69;5236615;28;20036;-68
2021/11/05 07:33:21;;;;;;;9.73;6.50;;;;;;;4.62;100.00;102006.13;5240004;28;20557;-68
2021/11/05 07:35:52;;;;;;;9.77;6.43;;;;;;;4.68;100.00;102012.81;5240189;28;20037;-69
2021/11/05 07:38:24;;;;;;;8.30;5.88;;;;;;;4.70;100.00;102018.78;5240153;28;20057;-69
2021/11/05 07:40:59;;;;;;;8.40;5.82;;;;;;;4.79;100.00;102021.00;5238543;28;20029;-68
2021/11/05 07:43:31;;;;;;;9.70;6.82;;;;;;;4.75;100.00;102022.88;5240508;28;20037;-72
2021/11/05 07:46:02;;;;;;;8.18;6.55;;;;;;;4.82;100.00;102026.09;5240669;28;20029;-71
2021/11/05 07:48:33;;;;;;;13.30;6.72;;;;;;;4.76;100.00;102023.72;5239862;28;20485;-71
2021/11/05 07:51:06;;;;;;;8.27;5.95;;;;;;;4.86;100.00;102032.81;5240066;28;20040;-71
2021/11/05 07:53:37;;;;;;;9.85;6.28;;;;;;;4.91;100.00;102040.41;5241357;28;20062;-72
2021/11/05 07:56:09;;;;;;;8.35;5.97;;;;;;;4.91;100.00;102045.63;5222910;28;20032;-72
2021/11/05 07:58:40;;;;;;;11.55;6.68;;;;;;;4.99;100.00;102043.53;5238846;28;20120;-71
2021/11/05 08:01:11;;;;;;;9.13;6.40;;;;;;;5.10;100.00;102047.38;5238065;28;20539;-71
2021/11/05 08:03:44;;;;;;;10.35;7.03;;;;;;;5.17;100.00;102047.13;5240051;28;20025;-71
2021/11/05 08:06:16;;;;;;;12.68;7.60;;;;;;;5.23;100.00;102052.06;5237900;28;20036;-72
2021/11/05 08:08:48;;;;;;;9.77;7.03;;;;;;;5.32;100.00;102055.09;5240012;28;20028;-72
2021/11/05 08:11:22;;;;;;;19.55;8.43;;;;;;;5.44;100.00;102065.84;5239100;28;20288;-71
2021/11/05 08:13:53;;;;;;;11.57;7.35;;;;;;;5.46;100.00;102064.88;5239028;28;20156;-71
2021/11/05 08:16:26;;;;;;;15.85;8.35;;;;;;;5.56;100.00;102066.16;5221641;28;20025;-70
2021/11/05 08:18:57;;;;;;;11.03;8.40;;;;;;;5.68;100.00;102071.72;5238587;28;20296;-71
2021/11/05 08:21:29;;;;;;;13.20;8.40;;;;;;;5.73;100.00;102073.22;5239905;28;20355;-70
2021/11/05 08:24:00;;;;;;;14.27;9.05;;;;;;;5.85;100.00;102080.47;5238575;28;20035;-72
2021/11/05 08:26:32;;;;;;;11.25;8.50;;;;;;;5.97;100.00;102080.84;5239652;28;20398;-71
2021/11/05 08:29:08;;;;;;;10.52;9.48;;;;;;;6.11;100.00;102088.03;5238754;28;20024;-71
2021/11/05 08:31:40;;;;;;;10.38;9.00;;;;;;;6.15;100.00;102089.59;5219845;28;20479;-71
2021/11/05 08:34:11;;;;;;;13.45;9.40;;;;;;;6.24;100.00;102089.13;5238352;28;20026;-71
2021/11/05 08:36:43;;;;;;;15.65;10.13;;;;;;;6.27;100.00;102095.03;5238361;28;20117;-72
2021/11/05 08:39:14;;;;;;;13.60;10.15;;;;;;;6.44;100.00;102096.00;5240393;28;20025;-71
2021/11/05 08:41:45;;;;;;;14.13;10.88;;;;;;;6.55;100.00;102097.22;5238673;28;20030;-71
2021/11/05 08:44:17;;;;;;;13.70;10.75;;;;;;;6.58;100.00;102099.63;5238574;28;20029;-71
2021/11/05 08:46:49;;;;;;;18.73;10.23;;;;;;;6.63;100.00;102106.38;5241060;28;20119;-71
2021/11/05 08:49:24;;;;;;;15.52;10.45;;;;;;;6.79;100.00;102117.78;5242174;28;20033;-71
2021/11/05 08:51:55;;;;;;;14.18;11.30;;;;;;;6.82;100.00;102122.84;5239538;28;20514;-72
2021/11/05 08:54:27;;;;;;;17.75;11.40;;;;;;;6.89;100.00;102123.34;5238891;28;20045;-71
2021/11/05 08:56:58;;;;;;;11.80;10.35;;;;;;;6.93;100.00;102124.88;5238397;28;20023;-69
2021/11/05 08:59:29;;;;;;;13.65;11.35;;;;;;;7.09;100.00;102130.22;5239570;28;20475;-70
2021/11/05 09:02:02;;;;;;;15.65;11.48;;;;;;;7.13;100.00;102137.81;5239333;28;20119;-68
2021/11/05 09:04:33;;;;;;;15.90;11.15;;;;;;;7.19;100.00;102131.44;5239221;28;20037;-68
2021/11/05 09:07:05;;;;;;;15.23;11.68;;;;;;;7.27;100.00;102139.69;5238579;28;20030;-68
2021/11/05 09:09:40;;;;;;;13.13;11.73;;;;;;;7.31;100.00;102123.84;5238351;28;20034;-68
2021/11/05 09:12:12;;;;;;;15.02;12.10;;;;;;;7.47;100.00;102138.72;5237615;28;20150;-69
2021/11/05 09:14:43;;;;;;;17.30;12.23;;;;;;;7.56;100.00;102131.25;5238061;28;20501;-68
2021/11/05 09:17:15;;;;;;;19.63;13.55;;;;;;;7.65;100.00;102126.47;5240782;28;20506;-68
2021/11/05 09:19:46;;;;;;;18.15;14.73;;;;;;;7.76;100.00;102137.19;5237471;28;20210;-68
2021/11/05 09:22:18;;;;;;;20.33;13.98;;;;;;;7.83;100.00;102135.94;5237295;28;20028;-69
2021/11/05 09:24:50;;;;;;;17.08;14.30;;;;;;;8.04;100.00;102139.19;5238074;28;20057;-69
2021/11/05 09:27:22;;;;;;;17.47;13.47;;;;;;;8.12;100.00;102134.41;5239794;28;20103;-68
2021/11/05 09:29:53;;;;;;;16.08;13.82;;;;;;;8.29;100.00;102138.72;5241085;28;20398;-69
2021/11/05 09:32:25;;;;;;;19.83;13.02;;;;;;;8.41;100.00;102142.44;5238588;28;20107;-69
2021/11/05 09:34:56;;;;;;;16.10;13.07;;;;;;;8.60;100.00;102155.34;5237836;28;20024;-69
2021/11/05 09:37:28;;;;;;;14.55;11.80;;;;;;;8.72;100.00;102152.06;5239457;28;20033;-69
2021/11/05 09:39:59;;;;;;;15.00;11.48;;;;;;;8.82;100.00;102153.22;5239742;28;20491;-69
2021/11/05 09:42:31;;;;;;;18.10;10.98;;;;;;;8.89;100.00;102156.31;5239074;28;20025;-69
2021/11/05 09:45:03;;;;;;;16.67;10.80;;;;;;;9.00;100.00;102157.41;5239390;28;20116;-69
2021/11/05 09:47:35;;;;;;;13.43;9.18;;;;;;;9.01;100.00;102164.28;5240036;28;20045;-69
2021/11/05 09:50:08;;;;;;;14.75;9.93;;;;;;;9.17;100.00;102171.28;5240733;28;20014;-69
2021/11/05 09:52:39;;;;;;;18.65;8.07;;;;;;;9.20;100.00;102165.84;5236100;28;20053;-68
2021/11/05 09:55:12;;;;;;;13.27;10.13;;;;;;;9.31;100.00;102180.94;5237091;28;20040;-69
2021/11/05 09:57:44;;;;;;;17.38;9.02;;;;;;;9.36;100.00;102179.75;5236625;28;20025;-69
2021/11/05 10:00:20;;;;;;;15.88;7.72;;;;;;;9.44;100.00;102174.91;5239096;28;20066;-69
2021/11/05 10:02:52;;;;;;;16.00;9.38;;;;;;;9.61;100.00;102200.06;5240006;28;20052;-69
2021/11/05 10:05:24;;;;;;;13.02;8.38;;;;;;;9.66;100.00;102203.28;5237414;28;20071;-69
2021/11/05 10:07:58;;;;;;;12.52;8.27;;;;;;;9.73;100.00;102206.34;5239237;28;20183;-69
2021/11/05 10:10:31;;;;;;;14.93;7.53;;;;;;;9.77;100.00;102213.06;5239646;28;20030;-69
2021/11/05 10:13:09;;;;;;;9.65;6.20;;;;;;;9.85;100.00;102208.25;5238667;28;20032;-72
2021/11/05 10:15:48;;;;;;;11.88;6.47;;;;;;;9.90;100.00;102214.03;5236769;28;20031;-69
2021/11/05 10:18:29;;;;;;;11.10;5.85;;;;;;;9.98;100.00;102222.28;5237629;28;20437;-69
2021/11/05 10:21:12;;;;;;;11.75;5.15;;;;;;;10.01;100.00;102221.25;5241824;28;20135;-69
2021/11/05 10:23:45;;;;;;;15.73;5.10;;;;;;;9.93;100.00;102220.88;5242004;28;20033;-70
2021/11/05 10:26:27;;;;;;;12.52;4.85;;;;;;;10.06;100.00;102221.81;5241891;28;20025;-69
2021/11/05 10:29:00;;;;;;;12.48;5.53;;;;;;;10.02;100.00;102222.94;5240761;28;20021;-69
2021/11/05 10:31:31;;;;;;;10.05;4.50;;;;;;;10.10;100.00;102227.69;5239380;28;20018;-70
2021/11/05 10:34:03;;;;;;;9.85;4.75;;;;;;;10.13;100.00;102244.06;5241171;28;20625;-69
2021/11/05 10:36:34;;;;;;;9.65;4.93;;;;;;;10.26;100.00;102236.34;5240972;28;20033;-69
2021/11/05 10:39:07;;;;;;;10.55;4.80;;;;;;;10.39;100.00;102242.50;5240155;28;20033;-69
2021/11/05 10:41:38;;;;;;;15.60;4.50;;;;;;;10.46;100.00;102238.59;5241061;28;20018;-69
2021/11/05 10:44:15;;;;;;;11.25;4.38;;;;;;;10.65;100.00;102237.44;5241894;28;20147;-71
2021/11/05 10:46:47;;;;;;;8.80;4.10;;;;;;;10.71;100.00;102239.66;5240182;28;20498;-69
2021/11/05 10:49:31;;;;;;;10.65;5.10;;;;;;;10.95;100.00;102235.50;5240188;28;20039;-69
2021/11/05 10:52:16;;;;;;;9.27;3.90;;;;;;;11.07;100.00;102240.88;5239168;28;20040;-69
2021/11/05 10:55:00;;;;;;;9.60;4.15;;;;;;;11.03;100.00;102240.25;5241275;28;20105;-69
2021/11/05 10:57:42;;;;;;;7.85;3.88;;;;;;;11.07;100.00;102243.50;5242663;28;20025;-69
2021/11/05 11:00:30;;;;;;;10.18;3.75;;;;;;;11.22;100.00;102247.75;5242386;28;20028;-70
2021/11/05 11:03:17;;;;;;;13.50;4.13;;;;;;;11.13;100.00;102245.72;5239711;28;20032;-69
2021/11/05 11:05:48;;;;;;;9.70;4.10;;;;;;;11.13;100.00;102253.59;5240793;28;20025;-69
2021/11/05 11:08:28;;;;;;;11.35;4.47;;;;;;;11.20;100.00;102257.50;5245945;28;20039;-69
2021/11/05 11:11:19;;;;;;;7.45;4.03;;;;;;;11.37;100.00;102254.63;5243923;28;20444;-69
2021/11/05 11:14:02;;;;;;;7.63;3.97;;;;;;;11.42;100.00;102256.94;5245706;28;20371;-69
2021/11/05 11:16:40;;;;;;;10.90;4.03;;;;;;;11.52;100.00;102263.28;5246898;28;20024;-69
2021/11/05 11:19:15;;;;;;;9.07;4.20;;;;;;;11.48;100.00;102261.78;5247249;28;20060;-69
2021/11/05 11:21:46;;;;;;;9.38;4.60;;;;;;;11.53;100.00;102266.72;5245486;28;20037;-69
2021/11/05 11:24:20;;;;;;;12.10;5.60;;;;;;;11.59;100.00;102268.94;5244403;28;20030;-69
2021/11/05 11:26:54;;;;;;;9.77;3.97;;;;;;;11.65;100.00;102264.13;5246480;28;20907;-70
2021/11/05 11:29:27;;;;;;;8.45;3.67;;;;;;;11.69;100.00;102270.84;5246653;28;20784;-69
2021/11/05 11:32:01;;;;;;;8.27;3.10;;;;;;;11.78;100.00;102266.78;5244061;28;20105;-70
2021/11/05 11:34:32;;;;;;;8.05;3.17;;;;;;;11.86;100.00;102267.16;5242982;28;20029;-69
2021/11/05 11:37:04;;;;;;;9.98;2.78;;;;;;;12.04;100.00;102266.81;5245172;28;20028;-69
2021/11/05 11:39:35;;;;;;;13.13;3.97;;;;;;;12.04;100.00;102261.56;5245411;28;20067;-69
2021/11/05 11:42:09;;;;;;;8.50;2.97;;;;;;;12.17;100.00;102265.06;5243762;28;20082;-72